Terminal Aerodrome Forecast
Issued by NWS

Home | Current Version | Previous Version | Text Only | Print | Product List | Glossary On
Versions: 1 2 3 4 5 6 7 8 9 10 11 12
000
FTUS44 KCRP 050527
TAFLRD
TAF
KLRD 050527Z 0506/0606 14012KT P6SM SKC
     FM051500 15012KT P6SM FEW040
     FM060100 14015G20KT P6SM SKC=

USA.gov is the U.S. government's official web portal to all federal, state and local government web resources and services.